sensor_id;sensor_type;location;lat;lon;timestamp;pressure;altitude;pressure_sealevel;temperature;humidity
23427;BME280;41148;45.420;10.952;2024-03-02T00:00:40;99901.38;;;11.58;95.14
23427;BME280;41148;45.420;10.952;2024-03-02T00:03:08;99899.22;;;11.66;94.89
23427;BME280;41148;45.420;10.952;2024-03-02T00:05:37;99901.38;;;11.77;94.49
23427;BME280;41148;45.420;10.952;2024-03-02T00:08:04;99891.09;;;11.69;94.53
23427;BME280;41148;45.420;10.952;2024-03-02T00:10:38;99904.03;;;11.79;93.72
23427;BME280;41148;45.420;10.952;2024-03-02T00:13:08;99896.34;;;11.71;94.17
23427;BME280;41148;45.420;10.952;2024-03-02T00:15:48;99905.38;;;11.68;94.25
23427;BME280;41148;45.420;10.952;2024-03-02T00:18:19;99900.44;;;11.80;93.05
23427;BME280;41148;45.420;10.952;2024-03-02T00:20:47;99906.88;;;11.74;93.94
23427;BME280;41148;45.420;10.952;2024-03-02T00:23:15;99908.75;;;11.72;93.98
23427;BME280;41148;45.420;10.952;2024-03-02T00:25:49;99904.84;;;11.81;93.67
23427;BME280;41148;45.420;10.952;2024-03-02T00:33:33;99896.44;;;11.69;92.41
23427;BME280;41148;45.420;10.952;2024-03-02T00:36:02;99904.75;;;11.82;91.05
23427;BME280;41148;45.420;10.952;2024-03-02T00:38:30;99903.75;;;11.85;90.76
23427;BME280;41148;45.420;10.952;2024-03-02T00:40:58;99899.88;;;11.92;90.37
23427;BME280;41148;45.420;10.952;2024-03-02T00:45:53;99903.97;;;11.80;90.81
23427;BME280;41148;45.420;10.952;2024-03-02T00:48:21;99902.28;;;11.78;90.41
23427;BME280;41148;45.420;10.952;2024-03-02T00:50:50;99903.34;;;11.73;90.14
23427;BME280;41148;45.420;10.952;2024-03-02T00:53:20;99907.50;;;11.81;89.70
23427;BME280;41148;45.420;10.952;2024-03-02T00:55:51;99902.28;;;11.78;89.27
23427;BME280;41148;45.420;10.952;2024-03-02T00:58:19;99900.28;;;11.83;88.61
23427;BME280;41148;45.420;10.952;2024-03-02T01:00:46;99901.59;;;11.93;88.71
23427;BME280;41148;45.420;10.952;2024-03-02T01:03:14;99900.38;;;11.81;87.98
23427;BME280;41148;45.420;10.952;2024-03-02T01:05:42;99896.06;;;11.77;87.96
23427;BME280;41148;45.420;10.952;2024-03-02T01:08:10;99896.00;;;11.79;86.97
23427;BME280;41148;45.420;10.952;2024-03-02T01:10:37;99902.03;;;11.84;87.33
23427;BME280;41148;45.420;10.952;2024-03-02T01:13:05;99904.28;;;11.93;86.42
23427;BME280;41148;45.420;10.952;2024-03-02T01:15:33;99903.56;;;11.89;85.21
23427;BME280;41148;45.420;10.952;2024-03-02T01:18:00;99902.81;;;11.86;86.23
23427;BME280;41148;45.420;10.952;2024-03-02T01:20:28;99895.63;;;11.88;85.91
23427;BME280;41148;45.420;10.952;2024-03-02T01:22:55;99895.03;;;11.81;85.94
23427;BME280;41148;45.420;10.952;2024-03-02T01:25:22;99886.28;;;11.78;85.54
23427;BME280;41148;45.420;10.952;2024-03-02T01:27:50;99892.91;;;11.69;86.05
23427;BME280;41148;45.420;10.952;2024-03-02T01:30:17;99885.94;;;11.65;86.46
23427;BME280;41148;45.420;10.952;2024-03-02T01:32:45;99890.94;;;11.72;86.12
23427;BME280;41148;45.420;10.952;2024-03-02T01:35:12;99879.56;;;11.69;86.12
23427;BME280;41148;45.420;10.952;2024-03-02T01:37:39;99879.66;;;11.66;84.74
23427;BME280;41148;45.420;10.952;2024-03-02T01:40:07;99882.25;;;11.67;84.77
23427;BME280;41148;45.420;10.952;2024-03-02T01:42:39;99881.28;;;11.70;83.69
23427;BME280;41148;45.420;10.952;2024-03-02T01:45:09;99879.81;;;11.63;83.94
23427;BME280;41148;45.420;10.952;2024-03-02T01:47:36;99869.75;;;11.69;82.85
23427;BME280;41148;45.420;10.952;2024-03-02T01:50:04;99866.06;;;11.72;81.84
23427;BME280;41148;45.420;10.952;2024-03-02T01:52:31;99874.53;;;11.82;80.84
23427;BME280;41148;45.420;10.952;2024-03-02T01:54:58;99872.66;;;11.84;81.45
23427;BME280;41148;45.420;10.952;2024-03-02T01:57:26;99865.44;;;11.86;80.56
23427;BME280;41148;45.420;10.952;2024-03-02T01:59:53;99874.72;;;11.77;79.95
23427;BME280;41148;45.420;10.952;2024-03-02T02:02:21;99868.97;;;11.86;79.09
23427;BME280;41148;45.420;10.952;2024-03-02T02:04:48;99877.53;;;11.74;79.16
23427;BME280;41148;45.420;10.952;2024-03-02T02:10:21;99884.88;;;11.89;77.97
23427;BME280;41148;45.420;10.952;2024-03-02T02:12:48;99878.28;;;11.78;77.28
23427;BME280;41148;45.420;10.952;2024-03-02T02:15:23;99883.34;;;12.02;77.11
23427;BME280;41148;45.420;10.952;2024-03-02T02:17:54;99878.69;;;11.89;76.59
23427;BME280;41148;45.420;10.952;2024-03-02T02:20:23;99881.97;;;11.94;76.63
23427;BME280;41148;45.420;10.952;2024-03-02T02:25:32;99891.53;;;11.99;77.96
23427;BME280;41148;45.420;10.952;2024-03-02T02:27:59;99878.59;;;11.90;79.18
23427;BME280;41148;45.420;10.952;2024-03-02T02:30:27;99885.81;;;11.88;79.29
23427;BME280;41148;45.420;10.952;2024-03-02T02:32:55;99880.31;;;11.91;79.30
23427;BME280;41148;45.420;10.952;2024-03-02T02:35:22;99873.97;;;11.94;80.13
23427;BME280;41148;45.420;10.952;2024-03-02T02:37:51;99877.59;;;11.93;80.17
23427;BME280;41148;45.420;10.952;2024-03-02T02:40:22;99869.13;;;11.83;80.25
23427;BME280;41148;45.420;10.952;2024-03-02T02:42:49;99873.41;;;11.87;80.28
23427;BME280;41148;45.420;10.952;2024-03-02T02:45:19;99869.22;;;11.82;81.40
23427;BME280;41148;45.420;10.952;2024-03-02T02:47:49;99868.34;;;11.81;81.07
23427;BME280;41148;45.420;10.952;2024-03-02T02:50:17;99862.84;;;11.84;80.82
23427;BME280;41148;45.420;10.952;2024-03-02T02:52:46;99863.66;;;11.86;81.08
23427;BME280;41148;45.420;10.952;2024-03-02T02:55:13;99869.28;;;11.80;80.79
23427;BME280;41148;45.420;10.952;2024-03-02T02:57:42;99865.41;;;11.87;81.20
23427;BME280;41148;45.420;10.952;2024-03-02T03:00:11;99864.75;;;11.82;80.73
23427;BME280;41148;45.420;10.952;2024-03-02T03:02:45;99863.13;;;11.78;80.94
23427;BME280;41148;45.420;10.952;2024-03-02T03:05:15;99862.94;;;11.83;80.74
23427;BME280;41148;45.420;10.952;2024-03-02T03:07:42;99864.25;;;11.72;80.78
23427;BME280;41148;45.420;10.952;2024-03-02T03:10:11;99862.44;;;11.73;81.32
23427;BME280;41148;45.420;10.952;2024-03-02T03:12:38;99866.66;;;11.79;81.34
23427;BME280;41148;45.420;10.952;2024-03-02T03:15:08;99872.00;;;11.79;81.65
23427;BME280;41148;45.420;10.952;2024-03-02T03:17:36;99863.09;;;11.80;81.54
23427;BME280;41148;45.420;10.952;2024-03-02T03:20:05;99871.41;;;11.72;82.63
23427;BME280;41148;45.420;10.952;2024-03-02T03:22:33;99874.25;;;11.67;81.99
23427;BME280;41148;45.420;10.952;2024-03-02T03:25:02;99871.25;;;11.75;82.10
23427;BME280;41148;45.420;10.952;2024-03-02T03:27:30;99879.13;;;11.78;82.35
23427;BME280;41148;45.420;10.952;2024-03-02T03:29:58;99882.41;;;11.85;81.95
23427;BME280;41148;45.420;10.952;2024-03-02T03:32:25;99877.38;;;11.77;81.71
23427;BME280;41148;45.420;10.952;2024-03-02T03:34:53;99877.22;;;11.82;82.22
23427;BME280;41148;45.420;10.952;2024-03-02T03:37:20;99872.84;;;11.79;82.21
23427;BME280;41148;45.420;10.952;2024-03-02T03:39:47;99880.50;;;11.68;82.28
23427;BME280;41148;45.420;10.952;2024-03-02T03:42:15;99884.50;;;11.76;82.20
23427;BME280;41148;45.420;10.952;2024-03-02T03:44:43;99886.28;;;11.78;81.58
23427;BME280;41148;45.420;10.952;2024-03-02T03:47:10;99883.50;;;11.81;81.24
23427;BME280;41148;45.420;10.952;2024-03-02T03:49:38;99882.22;;;11.69;81.38
23427;BME280;41148;45.420;10.952;2024-03-02T03:52:05;99882.47;;;11.83;80.90
23427;BME280;41148;45.420;10.952;2024-03-02T03:54:33;99882.06;;;11.72;81.66
23427;BME280;41148;45.420;10.952;2024-03-02T03:57:00;99881.41;;;11.87;81.13
23427;BME280;41148;45.420;10.952;2024-03-02T03:59:28;99881.13;;;11.93;80.74
23427;BME280;41148;45.420;10.952;2024-03-02T04:01:55;99886.00;;;11.84;80.97
23427;BME280;41148;45.420;10.952;2024-03-02T04:04:23;99887.19;;;11.76;81.59
23427;BME280;41148;45.420;10.952;2024-03-02T04:06:50;99886.00;;;11.84;81.09
23427;BME280;41148;45.420;10.952;2024-03-02T04:09:18;99894.16;;;11.81;82.39
23427;BME280;41148;45.420;10.952;2024-03-02T04:11:45;99889.78;;;11.80;81.68
23427;BME280;41148;45.420;10.952;2024-03-02T04:14:13;99896.94;;;11.78;82.44
23427;BME280;41148;45.420;10.952;2024-03-02T04:16:40;99886.19;;;11.79;81.86
23427;BME280;41148;45.420;10.952;2024-03-02T04:19:07;99891.50;;;11.81;81.85
23427;BME280;41148;45.420;10.952;2024-03-02T04:21:35;99887.75;;;11.85;82.12
23427;BME280;41148;45.420;10.952;2024-03-02T04:24:02;99891.34;;;11.84;82.05
23427;BME280;41148;45.420;10.952;2024-03-02T04:26:30;99895.09;;;11.80;81.75
23427;BME280;41148;45.420;10.952;2024-03-02T04:28:57;99899.63;;;11.78;82.17
23427;BME280;41148;45.420;10.952;2024-03-02T04:31:24;99900.75;;;11.72;82.66
23427;BME280;41148;45.420;10.952;2024-03-02T04:33:52;99905.22;;;11.71;81.76
23427;BME280;41148;45.420;10.952;2024-03-02T04:36:19;99906.25;;;11.69;82.20
23427;BME280;41148;45.420;10.952;2024-03-02T04:38:46;99909.09;;;11.64;82.69
23427;BME280;41148;45.420;10.952;2024-03-02T04:41:14;99904.91;;;11.59;83.83
23427;BME280;41148;45.420;10.952;2024-03-02T04:43:41;99916.72;;;11.53;84.96
23427;BME280;41148;45.420;10.952;2024-03-02T04:46:08;99917.31;;;11.60;85.07
23427;BME280;41148;45.420;10.952;2024-03-02T04:48:35;99910.44;;;11.54;85.56
23427;BME280;41148;45.420;10.952;2024-03-02T04:51:03;99913.91;;;11.56;85.23
23427;BME280;41148;45.420;10.952;2024-03-02T04:53:30;99922.13;;;11.52;86.35
23427;BME280;41148;45.420;10.952;2024-03-02T04:55:57;99915.91;;;11.51;86.60
23427;BME280;41148;45.420;10.952;2024-03-02T04:58:43;99916.84;;;11.50;86.89
23427;BME280;41148;45.420;10.952;2024-03-02T05:01:10;99922.25;;;11.49;87.39
23427;BME280;41148;45.420;10.952;2024-03-02T05:03:38;99928.38;;;11.51;87.46
23427;BME280;41148;45.420;10.952;2024-03-02T05:06:05;99932.94;;;11.49;87.41
23427;BME280;41148;45.420;10.952;2024-03-02T05:08:33;99931.13;;;11.49;87.41
23427;BME280;41148;45.420;10.952;2024-03-02T05:11:00;99932.88;;;11.50;87.29
23427;BME280;41148;45.420;10.952;2024-03-02T05:13:47;99934.44;;;11.54;86.70
23427;BME280;41148;45.420;10.952;2024-03-02T05:16:15;99931.00;;;11.52;86.43
23427;BME280;41148;45.420;10.952;2024-03-02T05:18:42;99939.13;;;11.49;86.87
23427;BME280;41148;45.420;10.952;2024-03-02T05:21:09;99937.44;;;11.46;86.75
23427;BME280;41148;45.420;10.952;2024-03-02T05:23:36;99942.06;;;11.43;87.71
23427;BME280;41148;45.420;10.952;2024-03-02T05:26:04;99952.91;;;11.38;86.95
23427;BME280;41148;45.420;10.952;2024-03-02T05:28:31;99949.50;;;11.35;86.79
23427;BME280;41148;45.420;10.952;2024-03-02T05:30:58;99950.31;;;11.37;86.36
23427;BME280;41148;45.420;10.952;2024-03-02T05:33:26;99942.31;;;11.37;86.42
23427;BME280;41148;45.420;10.952;2024-03-02T05:35:53;99948.94;;;11.49;86.36
23427;BME280;41148;45.420;10.952;2024-03-02T05:38:21;99942.66;;;11.50;85.44
23427;BME280;41148;45.420;10.952;2024-03-02T05:40:49;99954.31;;;11.47;85.48
23427;BME280;41148;45.420;10.952;2024-03-02T05:43:16;99943.72;;;11.45;85.11
23427;BME280;41148;45.420;10.952;2024-03-02T05:45:43;99950.13;;;11.41;85.42
23427;BME280;41148;45.420;10.952;2024-03-02T05:48:11;99952.66;;;11.44;85.13
23427;BME280;41148;45.420;10.952;2024-03-02T05:50:38;99953.50;;;11.45;85.99
23427;BME280;41148;45.420;10.952;2024-03-02T05:53:05;99947.31;;;11.44;85.30
23427;BME280;41148;45.420;10.952;2024-03-02T05:55:33;99962.31;;;11.47;85.07
23427;BME280;41148;45.420;10.952;2024-03-02T05:58:00;99959.53;;;11.50;85.03
23427;BME280;41148;45.420;10.952;2024-03-02T06:00:33;99965.13;;;11.44;84.68
23427;BME280;41148;45.420;10.952;2024-03-02T06:03:01;99967.47;;;11.52;84.80
23427;BME280;41148;45.420;10.952;2024-03-02T06:05:28;99967.66;;;11.47;84.73
23427;BME280;41148;45.420;10.952;2024-03-02T06:07:56;99969.28;;;11.51;84.88
23427;BME280;41148;45.420;10.952;2024-03-02T06:10:23;99976.00;;;11.39;85.62
23427;BME280;41148;45.420;10.952;2024-03-02T06:12:50;99979.00;;;11.52;84.90
23427;BME280;41148;45.420;10.952;2024-03-02T06:15:18;99984.19;;;11.55;85.08
23427;BME280;41148;45.420;10.952;2024-03-02T06:17:46;99977.13;;;11.54;85.37
23427;BME280;41148;45.420;10.952;2024-03-02T06:20:14;99980.94;;;11.49;85.41
23427;BME280;41148;45.420;10.952;2024-03-02T06:22:41;99986.22;;;11.50;85.71
23427;BME280;41148;45.420;10.952;2024-03-02T06:25:08;99977.28;;;11.51;85.70
23427;BME280;41148;45.420;10.952;2024-03-02T06:27:36;99985.44;;;11.46;86.20
23427;BME280;41148;45.420;10.952;2024-03-02T06:30:03;99989.44;;;11.36;87.09
23427;BME280;41148;45.420;10.952;2024-03-02T06:32:31;99982.44;;;11.34;87.56
23427;BME280;41148;45.420;10.952;2024-03-02T06:34:58;99987.94;;;11.31;87.80
23427;BME280;41148;45.420;10.952;2024-03-02T06:37:26;99986.06;;;11.33;88.00
23427;BME280;41148;45.420;10.952;2024-03-02T06:39:54;99996.31;;;11.22;89.10
23427;BME280;41148;45.420;10.952;2024-03-02T06:42:21;99991.00;;;11.42;88.33
23427;BME280;41148;45.420;10.952;2024-03-02T06:44:48;99994.84;;;11.35;88.17
23427;BME280;41148;45.420;10.952;2024-03-02T06:47:16;99989.34;;;11.39;88.40
23427;BME280;41148;45.420;10.952;2024-03-02T06:49:43;99996.50;;;11.37;89.78
23427;BME280;41148;45.420;10.952;2024-03-02T06:52:11;100006.06;;;11.43;89.19
23427;BME280;41148;45.420;10.952;2024-03-02T06:54:38;100013.34;;;11.39;89.93
23427;BME280;41148;45.420;10.952;2024-03-02T06:57:05;100014.06;;;11.43;89.68
23427;BME280;41148;45.420;10.952;2024-03-02T06:59:33;100016.81;;;11.41;89.66
23427;BME280;41148;45.420;10.952;2024-03-02T07:02:00;100021.13;;;11.44;89.61
23427;BME280;41148;45.420;10.952;2024-03-02T07:04:29;100021.75;;;11.51;89.32
23427;BME280;41148;45.420;10.952;2024-03-02T07:06:56;100020.03;;;11.50;89.33
23427;BME280;41148;45.420;10.952;2024-03-02T07:09:23;100022.63;;;11.51;89.76
23427;BME280;41148;45.420;10.952;2024-03-02T07:11:52;100034.03;;;11.55;89.95
23427;BME280;41148;45.420;10.952;2024-03-02T07:14:20;100030.63;;;11.51;91.12
23427;BME280;41148;45.420;10.952;2024-03-02T07:16:47;100026.41;;;11.45;90.89
23427;BME280;41148;45.420;10.952;2024-03-02T07:19:15;100035.16;;;11.49;91.38
23427;BME280;41148;45.420;10.952;2024-03-02T07:21:43;100042.28;;;11.49;91.02
23427;BME280;41148;45.420;10.952;2024-03-02T07:24:10;100045.69;;;11.52;91.58
23427;BME280;41148;45.420;10.952;2024-03-02T07:26:40;100049.00;;;11.57;91.72
23427;BME280;41148;45.420;10.952;2024-03-02T07:29:10;100046.91;;;11.65;91.70
23427;BME280;41148;45.420;10.952;2024-03-02T07:31:38;100062.66;;;11.71;91.35
23427;BME280;41148;45.420;10.952;2024-03-02T07:34:05;100061.00;;;11.69;90.91
23427;BME280;41148;45.420;10.952;2024-03-02T07:36:32;100063.69;;;11.67;90.97
23427;BME280;41148;45.420;10.952;2024-03-02T07:39:00;100065.03;;;11.57;90.69
23427;BME280;41148;45.420;10.952;2024-03-02T07:41:27;100068.44;;;11.61;90.69
23427;BME280;41148;45.420;10.952;2024-03-02T07:43:55;100074.72;;;11.60;91.11
23427;BME280;41148;45.420;10.952;2024-03-02T07:46:22;100073.91;;;11.58;91.01
23427;BME280;41148;45.420;10.952;2024-03-02T07:48:50;100075.38;;;11.65;90.56
23427;BME280;41148;45.420;10.952;2024-03-02T07:51:19;100077.31;;;11.61;91.21
23427;BME280;41148;45.420;10.952;2024-03-02T07:53:46;100082.78;;;11.58;91.43
23427;BME280;41148;45.420;10.952;2024-03-02T07:56:14;100080.53;;;11.47;93.07
23427;BME280;41148;45.420;10.952;2024-03-02T07:58:43;100092.97;;;11.49;94.11
23427;BME280;41148;45.420;10.952;2024-03-02T08:01:13;100093.72;;;11.52;93.67
23427;BME280;41148;45.420;10.952;2024-03-02T08:03:40;100086.38;;;11.57;94.01
23427;BME280;41148;45.420;10.952;2024-03-02T08:06:08;100087.66;;;11.49;93.32
23427;BME280;41148;45.420;10.952;2024-03-02T08:08:35;100097.25;;;11.53;93.64
23427;BME280;41148;45.420;10.952;2024-03-02T08:11:02;100097.38;;;11.50;94.27
23427;BME280;41148;45.420;10.952;2024-03-02T08:13:30;100097.47;;;11.46;95.51
23427;BME280;41148;45.420;10.952;2024-03-02T08:15:57;100097.47;;;11.46;96.15
23427;BME280;41148;45.420;10.952;2024-03-02T08:18:25;100101.38;;;11.38;97.04
23427;BME280;41148;45.420;10.952;2024-03-02T08:20:52;100104.06;;;11.38;98.56
23427;BME280;41148;45.420;10.952;2024-03-02T08:23:21;100104.88;;;11.40;97.61
23427;BME280;41148;45.420;10.952;2024-03-02T08:25:48;100101.38;;;11.38;99.17
23427;BME280;41148;45.420;10.952;2024-03-02T08:28:16;100103.19;;;11.37;98.48
23427;BME280;41148;45.420;10.952;2024-03-02T08:30:44;100109.59;;;11.33;98.84
23427;BME280;41148;45.420;10.952;2024-03-02T08:33:11;100115.50;;;11.41;97.94
23427;BME280;41148;45.420;10.952;2024-03-02T08:35:39;100114.41;;;11.45;98.15
23427;BME280;41148;45.420;10.952;2024-03-02T08:38:07;100117.53;;;11.35;97.28
23427;BME280;41148;45.420;10.952;2024-03-02T08:40:35;100114.22;;;11.28;97.93
23427;BME280;41148;45.420;10.952;2024-03-02T08:43:02;100117.88;;;11.26;99.31
23427;BME280;41148;45.420;10.952;2024-03-02T08:45:30;100126.75;;;11.26;99.40
23427;BME280;41148;45.420;10.952;2024-03-02T08:47:57;100119.13;;;11.17;100.00
23427;BME280;41148;45.420;10.952;2024-03-02T08:50:24;100121.84;;;11.37;100.00
23427;BME280;41148;45.420;10.952;2024-03-02T08:52:52;100120.03;;;11.39;100.00
23427;BME280;41148;45.420;10.952;2024-03-02T08:55:19;100117.72;;;11.52;100.00
23427;BME280;41148;45.420;10.952;2024-03-02T08:57:46;100117.50;;;11.57;99.50
23427;BME280;41148;45.420;10.952;2024-03-02T09:00:14;100118.72;;;11.50;99.04
23427;BME280;41148;45.420;10.952;2024-03-02T09:02:41;100123.59;;;11.38;100.00
23427;BME280;41148;45.420;10.952;2024-03-02T09:05:10;100116.44;;;11.40;98.39
23427;BME280;41148;45.420;10.952;2024-03-02T09:07:38;100119.75;;;11.45;99.26
23427;BME280;41148;45.420;10.952;2024-03-02T09:10:08;100125.28;;;11.41;98.39
23427;BME280;41148;45.420;10.952;2024-03-02T09:12:36;100119.25;;;11.58;98.44
23427;BME280;41148;45.420;10.952;2024-03-02T09:15:04;100124.47;;;11.61;97.83
23427;BME280;41148;45.420;10.952;2024-03-02T09:17:33;100127.75;;;11.67;95.40
23427;BME280;41148;45.420;10.952;2024-03-02T09:20:01;100130.00;;;11.78;95.05
23427;BME280;41148;45.420;10.952;2024-03-02T09:22:28;100124.16;;;11.90;94.51
23427;BME280;41148;45.420;10.952;2024-03-02T09:24:55;100128.63;;;11.90;94.57
23427;BME280;41148;45.420;10.952;2024-03-02T09:27:23;100141.66;;;11.97;93.08
23427;BME280;41148;45.420;10.952;2024-03-02T09:29:50;100150.06;;;11.88;93.63
23427;BME280;41148;45.420;10.952;2024-03-02T09:32:17;100137.69;;;11.86;93.56
23427;BME280;41148;45.420;10.952;2024-03-02T09:34:45;100146.19;;;11.95;94.30
23427;BME280;41148;45.420;10.952;2024-03-02T09:37:12;100143.13;;;12.04;94.50
23427;BME280;41148;45.420;10.952;2024-03-02T09:39:39;100143.59;;;12.14;94.50
23427;BME280;41148;45.420;10.952;2024-03-02T09:42:07;100143.00;;;12.08;95.68
23427;BME280;41148;45.420;10.952;2024-03-02T09:44:34;100140.28;;;12.09;95.14
23427;BME280;41148;45.420;10.952;2024-03-02T09:47:01;100141.88;;;12.13;94.91
23427;BME280;41148;45.420;10.952;2024-03-02T09:49:29;100138.53;;;12.08;95.57
23427;BME280;41148;45.420;10.952;2024-03-02T09:51:56;100143.25;;;12.01;96.76
23427;BME280;41148;45.420;10.952;2024-03-02T09:54:23;100143.25;;;12.01;97.66
23427;BME280;41148;45.420;10.952;2024-03-02T09:56:51;100141.69;;;11.96;98.50
23427;BME280;41148;45.420;10.952;2024-03-02T09:59:18;100144.44;;;11.94;98.35
23427;BME280;41148;45.420;10.952;2024-03-02T10:01:57;100142.47;;;11.99;98.66
23427;BME280;41148;45.420;10.952;2024-03-02T10:04:28;100153.06;;;12.01;100.00
23427;BME280;41148;45.420;10.952;2024-03-02T10:07:12;100149.00;;;12.13;99.38
23427;BME280;41148;45.420;10.952;2024-03-02T10:09:40;100154.81;;;12.22;98.83
23427;BME280;41148;45.420;10.952;2024-03-02T10:12:09;100159.22;;;12.23;99.14
23427;BME280;41148;45.420;10.952;2024-03-02T10:14:37;100150.75;;;12.14;100.00
23427;BME280;41148;45.420;10.952;2024-03-02T10:17:10;100157.09;;;12.11;99.57
23427;BME280;41148;45.420;10.952;2024-03-02T10:19:38;100147.59;;;12.04;100.00
23427;BME280;41148;45.420;10.952;2024-03-02T10:22:06;100145.47;;;12.12;99.92
23427;BME280;41148;45.420;10.952;2024-03-02T10:24:37;100150.22;;;12.26;100.00
23427;BME280;41148;45.420;10.952;2024-03-02T10:27:09;100158.91;;;12.31;99.62
23427;BME280;41148;45.420;10.952;2024-03-02T10:29:39;100157.16;;;12.50;98.66
23427;BME280;41148;45.420;10.952;2024-03-02T10:32:09;100155.28;;;12.52;98.03
23427;BME280;41148;45.420;10.952;2024-03-02T10:34:45;100162.44;;;12.52;99.41
23427;BME280;41148;45.420;10.952;2024-03-02T10:37:15;100154.28;;;12.55;97.64
23427;BME280;41148;45.420;10.952;2024-03-02T10:39:46;100165.47;;;12.63;96.43
23427;BME280;41148;45.420;10.952;2024-03-02T10:42:18;100148.94;;;12.55;95.67
23427;BME280;41148;45.420;10.952;2024-03-02T10:44:48;100155.97;;;12.57;94.92
23427;BME280;41148;45.420;10.952;2024-03-02T10:47:29;100150.94;;;12.50;94.87
23427;BME280;41148;45.420;10.952;2024-03-02T10:49:59;100157.22;;;12.49;95.25
23427;BME280;41148;45.420;10.952;2024-03-02T10:52:32;100159.22;;;12.44;93.87
23427;BME280;41148;45.420;10.952;2024-03-02T10:55:05;100162.63;;;12.68;95.16
23427;BME280;41148;45.420;10.952;2024-03-02T10:57:41;100156.34;;;12.69;94.17
23427;BME280;41148;45.420;10.952;2024-03-02T11:00:11;100160.09;;;12.65;93.97
23427;BME280;41148;45.420;10.952;2024-03-02T11:02:55;100156.75;;;12.59;92.75
23427;BME280;41148;45.420;10.952;2024-03-02T11:05:27;100154.06;;;12.59;93.43
23427;BME280;41148;45.420;10.952;2024-03-02T11:08:05;100158.47;;;12.60;93.20
23427;BME280;41148;45.420;10.952;2024-03-02T11:10:55;100159.50;;;12.58;92.77
23427;BME280;41148;45.420;10.952;2024-03-02T11:13:33;100150.06;;;12.49;93.24
23427;BME280;41148;45.420;10.952;2024-03-02T11:16:09;100153.09;;;12.42;93.89
23427;BME280;41148;45.420;10.952;2024-03-02T11:18:44;100151.59;;;12.35;95.53
23427;BME280;41148;45.420;10.952;2024-03-02T11:21:23;100140.44;;;12.25;98.47
23427;BME280;41148;45.420;10.952;2024-03-02T11:23:56;100141.75;;;12.37;98.03
23427;BME280;41148;45.420;10.952;2024-03-02T11:26:36;100144.47;;;12.35;98.38
23427;BME280;41148;45.420;10.952;2024-03-02T11:29:08;100145.47;;;12.32;99.87
23427;BME280;41148;45.420;10.952;2024-03-02T11:31:57;100143.00;;;12.28;97.77
23427;BME280;41148;45.420;10.952;2024-03-02T11:34:35;100139.94;;;12.17;97.98
23427;BME280;41148;45.420;10.952;2024-03-02T11:37:02;100134.13;;;12.07;98.90
23427;BME280;41148;45.420;10.952;2024-03-02T11:39:31;100133.53;;;12.21;100.00
23427;BME280;41148;45.420;10.952;2024-03-02T11:42:07;100130.25;;;12.14;99.61
23427;BME280;41148;45.420;10.952;2024-03-02T11:44:48;100131.53;;;12.26;100.00
23427;BME280;41148;45.420;10.952;2024-03-02T11:47:41;100124.50;;;12.03;100.00
23427;BME280;41148;45.420;10.952;2024-03-02T11:50:41;100123.72;;;12.21;100.00
23427;BME280;41148;45.420;10.952;2024-03-02T11:53:23;100125.91;;;12.12;99.90
23427;BME280;41148;45.420;10.952;2024-03-02T11:55:52;100123.38;;;12.09;99.71
23427;BME280;41148;45.420;10.952;2024-03-02T11:58:19;100124.09;;;12.12;100.00
23427;BME280;41148;45.420;10.952;2024-03-02T12:00:50;100115.84;;;11.98;99.27
23427;BME280;41148;45.420;10.952;2024-03-02T12:03:20;100111.00;;;12.06;100.00
23427;BME280;41148;45.420;10.952;2024-03-02T12:05:49;100101.16;;;12.08;100.00
23427;BME280;41148;45.420;10.952;2024-03-02T12:08:18;100101.41;;;12.22;100.00
23427;BME280;41148;45.420;10.952;2024-03-02T12:10:59;100099.53;;;12.24;100.00
23427;BME280;41148;45.420;10.952;2024-03-02T12:13:29;100096.91;;;12.43;100.00
23427;BME280;41148;45.420;10.952;2024-03-02T12:15:57;100093.72;;;12.35;100.00
23427;BME280;41148;45.420;10.952;2024-03-02T12:18:26;100086.00;;;12.29;100.00
23427;BME280;41148;45.420;10.952;2024-03-02T12:20:54;100080.53;;;12.12;100.00
23427;BME280;41148;45.420;10.952;2024-03-02T12:23:28;100085.59;;;12.18;100.00
23427;BME280;41148;45.420;10.952;2024-03-02T12:25:55;100095.81;;;12.28;100.00
23427;BME280;41148;45.420;10.952;2024-03-02T12:28:24;100105.69;;;12.47;100.00
23427;BME280;41148;45.420;10.952;2024-03-02T12:30:58;100098.31;;;12.31;100.00
23427;BME280;41148;45.420;10.952;2024-03-02T12:33:25;100097.78;;;12.44;100.00
23427;BME280;41148;45.420;10.952;2024-03-02T12:35:56;100098.97;;;12.57;99.47
23427;BME280;41148;45.420;10.952;2024-03-02T12:38:27;100097.28;;;12.75;98.91
23427;BME280;41148;45.420;10.952;2024-03-02T12:40:58;100105.38;;;12.53;97.39
23427;BME280;41148;45.420;10.952;2024-03-02T12:43:29;100106.53;;;12.47;96.83
23427;BME280;41148;45.420;10.952;2024-03-02T12:45:58;100103.72;;;12.50;97.67
23427;BME280;41148;45.420;10.952;2024-03-02T12:48:25;100103.56;;;12.53;97.67
23427;BME280;41148;45.420;10.952;2024-03-02T12:50:53;100105.88;;;12.42;96.42
23427;BME280;41148;45.420;10.952;2024-03-02T12:53:21;100099.50;;;12.26;97.04
23427;BME280;41148;45.420;10.952;2024-03-02T12:55:48;100103.03;;;12.26;98.21
23427;BME280;41148;45.420;10.952;2024-03-02T12:58:17;100107.13;;;12.33;99.23
23427;BME280;41148;45.420;10.952;2024-03-02T13:00:45;100104.34;;;12.37;98.56
23427;BME280;41148;45.420;10.952;2024-03-02T13:03:12;100104.16;;;12.21;99.77
23427;BME280;41148;45.420;10.952;2024-03-02T13:05:42;100099.81;;;12.18;99.36
23427;BME280;41148;45.420;10.952;2024-03-02T13:08:10;100101.25;;;12.25;98.44